createdAt,value
2018-07-09T06:00:24.533Z,6.55
2018-07-09T06:02:56.414Z,6.10
2018-07-09T06:11:10.483Z,6.43
2018-07-09T06:13:39.561Z,6.63
2018-07-09T06:16:10.207Z,6.43
2018-07-09T06:18:39.157Z,6.80
2018-07-09T06:21:07.959Z,6.80
2018-07-09T06:23:36.769Z,6.50
2018-07-09T06:26:06.151Z,7.23
2018-07-09T06:28:35.268Z,6.57
2018-07-09T06:31:04.207Z,6.77
2018-07-09T06:33:33.225Z,7.13
2018-07-09T06:36:02.031Z,6.80
2018-07-09T06:38:31.112Z,7.33
2018-07-09T06:41:00.443Z,7.30
2018-07-09T06:43:29.303Z,6.77
2018-07-09T06:45:58.633Z,7.20
2018-07-09T06:48:27.593Z,6.87
2018-07-09T06:50:56.455Z,6.60
2018-07-09T06:53:25.512Z,6.73
2018-07-09T06:55:54.345Z,6.80
2018-07-09T06:58:23.630Z,6.93
2018-07-09T07:00:52.431Z,6.00
2018-07-09T07:03:21.202Z,6.97
2018-07-09T07:05:49.887Z,5.67
2018-07-09T07:08:18.598Z,5.70
2018-07-09T07:10:47.639Z,5.07
2018-07-09T07:13:16.376Z,5.50
2018-07-09T07:15:45.096Z,4.67
2018-07-09T07:18:13.779Z,5.23
2018-07-09T07:20:42.535Z,5.53
2018-07-09T07:23:11.881Z,5.10
2018-07-09T07:25:40.647Z,5.30
2018-07-09T07:28:09.317Z,4.90
2018-07-09T07:30:38.178Z,4.77
2018-07-09T07:33:06.898Z,4.97
2018-07-09T07:35:36.164Z,5.27
2018-07-09T07:38:04.963Z,5.30
2018-07-09T07:40:34.046Z,5.67
2018-07-09T07:43:02.801Z,5.43
2018-07-09T07:45:31.836Z,5.50
2018-07-09T07:48:00.553Z,5.70
2018-07-09T07:50:30.090Z,5.90
2018-07-09T07:52:58.968Z,6.10
2018-07-09T07:55:27.702Z,6.27
2018-07-09T07:57:56.414Z,5.97
2018-07-09T08:00:25.124Z,6.13
2018-07-09T08:02:53.887Z,6.13
2018-07-09T08:05:22.743Z,6.17
2018-07-09T08:07:51.399Z,5.77
2018-07-09T08:10:20.200Z,5.97
2018-07-09T08:13:27.174Z,6.17
2018-07-09T08:15:17.680Z,6.70
2018-07-09T08:17:46.345Z,5.80
2018-07-09T08:20:15.051Z,6.30
2018-07-09T08:22:43.751Z,6.07
2018-07-09T08:25:12.808Z,6.03
2018-07-09T08:27:41.687Z,6.67
2018-07-09T08:30:10.439Z,5.73
2018-07-09T08:32:39.495Z,5.13
2018-07-09T08:35:08.561Z,5.07
2018-07-09T08:37:37.288Z,5.40
2018-07-09T08:40:06.019Z,5.27
2018-07-09T08:42:34.886Z,5.40
2018-07-09T08:45:03.975Z,5.27
2018-07-09T08:47:33.131Z,4.67
2018-07-09T08:50:02.486Z,5.50
2018-07-09T08:52:31.388Z,5.67
2018-07-09T08:55:00.271Z,5.37
2018-07-09T08:57:28.998Z,5.50
2018-07-09T08:59:57.827Z,5.60
2018-07-09T09:02:26.901Z,5.70
2018-07-09T09:04:55.888Z,5.60
2018-07-09T09:07:24.587Z,5.37
2018-07-09T09:09:53.434Z,5.93
2018-07-09T09:12:22.547Z,6.00
2018-07-09T09:14:51.228Z,5.40
2018-07-09T09:17:19.929Z,6.10
2018-07-09T09:19:48.800Z,5.70
2018-07-09T09:22:17.593Z,5.87
2018-07-09T09:24:47.248Z,6.23
2018-07-09T09:27:16.100Z,6.80
2018-07-09T09:29:44.923Z,5.20
2018-07-09T09:32:14.045Z,6.47
2018-07-09T09:34:42.850Z,5.77
2018-07-09T09:37:11.577Z,5.77
2018-07-09T09:39:40.528Z,5.97
2018-07-09T09:42:09.339Z,6.33
2018-07-09T09:44:38.445Z,5.93
2018-07-09T09:47:07.918Z,5.93
2018-07-09T09:49:36.712Z,5.77
2018-07-09T09:52:05.544Z,5.80
2018-07-09T09:54:34.755Z,5.87
2018-07-09T09:57:03.558Z,6.20
2018-07-09T09:59:32.299Z,5.77
2018-07-09T10:02:01.128Z,6.17
2018-07-09T10:04:30.183Z,5.37
2018-07-09T10:06:58.907Z,5.60
2018-07-09T10:09:27.849Z,6.00
2018-07-09T10:11:56.643Z,5.77
2018-07-09T10:14:25.357Z,6.47
2018-07-09T10:16:54.092Z,6.23
2018-07-09T10:19:23.374Z,5.20
2018-07-09T10:21:52.463Z,5.90
2018-07-09T10:24:21.191Z,6.17
2018-07-09T10:26:50.000Z,6.30
2018-07-09T10:29:19.172Z,6.83
2018-07-09T10:31:47.939Z,6.40
2018-07-09T10:34:16.877Z,6.10
2018-07-09T10:36:45.550Z,5.77
2018-07-09T10:39:14.242Z,6.23
2018-07-09T10:41:42.952Z,5.60
2018-07-09T10:44:11.697Z,6.37
2018-07-09T10:46:40.854Z,5.50
2018-07-09T10:49:09.555Z,5.60
2018-07-09T10:51:38.274Z,5.20
2018-07-09T10:54:07.255Z,5.03
2018-07-09T10:56:36.366Z,6.97
2018-07-09T10:59:05.240Z,6.43
2018-07-09T11:01:33.955Z,5.57
2018-07-09T11:04:02.711Z,4.83
2018-07-09T11:06:31.424Z,5.30
2018-07-09T11:09:00.180Z,6.43
2018-07-09T11:11:28.936Z,4.77
2018-07-09T11:13:57.675Z,5.67
2018-07-09T11:16:26.410Z,5.57
2018-07-09T11:18:55.536Z,5.43
2018-07-09T11:21:24.312Z,5.37
2018-07-09T11:23:53.475Z,3.77
2018-07-09T11:26:22.182Z,3.50
2018-07-09T11:28:50.969Z,3.40
2018-07-09T11:31:19.735Z,4.30
2018-07-09T11:33:48.624Z,3.80
2018-07-09T11:36:17.477Z,3.50
2018-07-09T11:38:46.181Z,3.90
2018-07-09T11:41:14.987Z,3.63
2018-07-09T11:43:44.144Z,3.10
2018-07-09T11:46:12.729Z,2.77
2018-07-09T11:48:41.876Z,2.90
2018-07-09T11:51:10.621Z,2.50
2018-07-09T11:53:39.407Z,3.00
2018-07-09T11:56:08.230Z,4.13
2018-07-09T11:58:36.966Z,4.97
2018-07-09T12:01:06.311Z,5.60
2018-07-09T12:03:35.167Z,5.20
2018-07-09T12:06:03.871Z,5.87
2018-07-09T12:08:33.011Z,5.00
2018-07-09T12:11:01.786Z,4.97
2018-07-09T12:13:30.492Z,4.60
2018-07-09T12:15:59.629Z,4.60
2018-07-09T12:18:28.393Z,4.13
2018-07-09T12:20:57.171Z,4.10
2018-07-09T12:23:25.960Z,3.90
2018-07-09T12:25:55.007Z,5.03
2018-07-09T12:28:23.850Z,4.63
2018-07-09T12:30:52.677Z,4.40
2018-07-09T12:33:21.416Z,4.70
2018-07-09T12:35:50.209Z,4.90
2018-07-09T12:38:19.182Z,4.50
2018-07-09T12:40:47.967Z,4.43
2018-07-09T12:43:16.720Z,3.70
2018-07-09T12:45:45.472Z,4.67
2018-07-09T12:48:14.173Z,3.70
2018-07-09T12:50:43.743Z,3.70
2018-07-09T12:53:12.439Z,4.17
2018-07-09T12:55:41.499Z,4.17
2018-07-09T12:58:10.404Z,4.13
2018-07-09T13:00:39.368Z,4.30
2018-07-09T13:03:08.119Z,3.97
2018-07-09T13:05:37.132Z,3.37
2018-07-09T13:08:05.920Z,4.43
2018-07-09T13:10:34.635Z,3.90
2018-07-09T13:13:03.431Z,3.67
2018-07-09T13:15:32.187Z,3.20
2018-07-09T13:18:01.250Z,3.90
2018-07-09T13:20:29.982Z,3.60
2018-07-09T13:22:58.715Z,3.80
2018-07-09T13:25:27.437Z,4.00
2018-07-09T13:27:56.668Z,4.17
2018-07-09T13:30:25.688Z,4.43
2018-07-09T13:32:54.715Z,3.83
2018-07-09T13:35:23.471Z,3.70
2018-07-09T13:37:52.346Z,3.53
2018-07-09T13:40:21.663Z,3.50
2018-07-09T13:42:50.994Z,3.47
2018-07-09T13:45:19.756Z,3.00
2018-07-09T13:47:48.503Z,3.37
2018-07-09T13:50:17.314Z,3.10
2018-07-09T13:52:46.344Z,3.83
2018-07-09T13:55:15.165Z,3.50
2018-07-09T13:57:44.006Z,3.90
2018-07-09T14:00:12.780Z,4.00
2018-07-09T14:02:41.645Z,3.70
2018-07-09T14:05:10.755Z,3.80
2018-07-09T14:07:39.702Z,3.50
2018-07-09T14:10:08.751Z,3.47
2018-07-09T14:12:37.451Z,3.33
2018-07-09T14:15:06.201Z,3.40
2018-07-09T14:17:34.978Z,3.70
2018-07-09T14:20:16.274Z,3.03
2018-07-09T14:22:44.678Z,2.00
2018-07-09T14:25:13.464Z,2.23
2018-07-09T14:27:42.200Z,2.50
2018-07-09T14:30:11.255Z,2.30
2018-07-09T14:32:40.725Z,2.77
2018-07-09T14:35:09.480Z,2.83
2018-07-09T14:37:38.731Z,3.43
2018-07-09T14:40:07.952Z,3.93
2018-07-09T14:42:37.334Z,3.37
2018-07-09T14:45:06.278Z,2.93
2018-07-09T14:47:35.483Z,2.33
2018-07-09T14:50:04.459Z,2.90
2018-07-09T14:52:33.175Z,2.90
2018-07-09T14:55:02.304Z,2.50
2018-07-09T14:57:31.161Z,3.07
2018-07-09T15:00:00.040Z,2.80
2018-07-09T15:02:29.116Z,2.93
2018-07-09T15:04:57.996Z,3.03
2018-07-09T15:07:27.038Z,3.10
2018-07-09T15:09:56.374Z,4.00
2018-07-09T15:12:25.104Z,3.53
2018-07-09T15:14:53.871Z,4.10
2018-07-09T15:17:22.796Z,4.30
2018-07-09T15:19:51.844Z,3.77
2018-07-09T15:22:20.544Z,4.00
2018-07-09T15:24:50.159Z,3.70
2018-07-09T15:27:18.878Z,3.80
2018-07-09T15:29:48.086Z,4.30
2018-07-09T15:32:20.501Z,5.00
2018-07-09T15:34:49.279Z,4.47
2018-07-09T15:37:18.002Z,5.33
2018-07-09T15:39:47.084Z,5.27
2018-07-09T15:42:16.156Z,5.77
2018-07-09T15:44:44.949Z,6.23
2018-07-09T15:47:13.654Z,6.83
2018-07-09T15:49:43.142Z,6.67
2018-07-09T15:52:12.419Z,7.27
2018-07-09T15:54:41.107Z,7.07
2018-07-09T15:57:10.091Z,7.37
2018-07-09T15:59:38.991Z,7.33
2018-07-09T16:02:07.754Z,6.60
2018-07-09T16:04:36.491Z,6.93
2018-07-09T16:07:05.551Z,7.50
2018-07-09T16:09:34.267Z,6.90
2018-07-09T16:12:03.329Z,7.20
2018-07-09T16:14:32.038Z,6.73
2018-07-09T16:17:00.748Z,7.13
2018-07-09T16:19:29.544Z,7.10
2018-07-09T16:21:58.576Z,7.17
2018-07-09T16:24:27.388Z,6.40
2018-07-09T16:26:56.771Z,7.30
2018-07-09T16:29:25.701Z,8.10
2018-07-09T16:31:54.881Z,10.23
2018-07-09T16:34:23.699Z,6.67
2018-07-09T16:36:52.531Z,6.07
2018-07-09T16:39:25.409Z,5.80
2018-07-09T16:41:54.940Z,6.30
2018-07-09T16:44:30.703Z,10.50
2018-07-09T16:47:06.203Z,7.30
2018-07-09T16:49:39.827Z,5.97
2018-07-09T16:52:09.038Z,5.60
2018-07-09T16:54:45.192Z,4.17
2018-07-09T16:57:16.611Z,4.70
2018-07-09T16:59:45.422Z,3.80
2018-07-09T17:02:15.599Z,4.10
2018-07-09T17:04:45.422Z,4.23
2018-07-09T17:07:14.698Z,3.30
2018-07-09T17:15:27.429Z,5.03
2018-07-09T17:17:57.247Z,15.80
2018-07-09T17:30:29.246Z,2.33
2018-07-09T17:32:58.892Z,2.47
2018-07-09T17:35:28.669Z,21.57
2018-07-09T17:37:58.574Z,24.27
2018-07-09T17:40:29.554Z,9.37
2018-07-09T17:42:59.284Z,3.30
2018-07-09T17:45:28.897Z,3.07
2018-07-09T17:47:58.490Z,2.40
2018-07-09T17:50:27.906Z,2.70
2018-07-09T17:52:59.273Z,2.80
2018-07-09T17:55:29.262Z,3.03
2018-07-09T17:57:58.853Z,2.70
2018-07-09T18:00:28.165Z,2.80
2018-07-09T18:02:57.907Z,3.10
2018-07-09T18:05:27.658Z,2.70
2018-07-09T18:08:00.287Z,2.70
2018-07-09T18:10:40.232Z,3.00
2018-07-09T18:13:10.460Z,3.27
2018-07-09T18:15:51.971Z,3.60
2018-07-09T18:18:32.856Z,2.80
2018-07-09T18:21:02.524Z,2.90
2018-07-09T18:23:32.365Z,2.77
2018-07-09T18:26:03.957Z,3.40
2018-07-09T18:28:35.171Z,2.83
2018-07-09T18:31:04.679Z,2.90
2018-07-09T18:33:38.914Z,3.13
2018-07-09T18:42:40.627Z,3.10
2018-07-09T18:45:10.105Z,8.00
2018-07-09T18:47:40.352Z,2.93
2018-07-09T18:50:09.731Z,3.37
2018-07-09T18:52:39.463Z,3.50
2018-07-09T18:55:09.026Z,2.93
2018-07-09T18:57:45.839Z,3.00
2018-07-09T19:00:15.230Z,4.20
2018-07-09T19:02:45.279Z,2.80
2018-07-09T19:05:25.225Z,3.80
2018-07-09T19:08:01.890Z,2.90
2018-07-09T19:10:33.019Z,3.17
2018-07-09T19:13:03.613Z,2.70
2018-07-09T19:18:34.833Z,2.27
2018-07-09T19:21:41.511Z,2.30
2018-07-09T19:24:11.551Z,1.90
2018-07-09T19:26:40.406Z,2.47
2018-07-09T19:29:08.532Z,2.70
2018-07-09T19:31:52.460Z,1.80
2018-07-09T19:34:21.087Z,1.77
2018-07-09T19:37:40.635Z,1.83
2018-07-09T19:40:09.133Z,2.53
2018-07-09T19:42:41.160Z,2.23
2018-07-09T20:00:47.410Z,2.43
2018-07-09T20:03:20.636Z,2.13
2018-07-09T20:29:54.328Z,2.20
